Time;durP1;ratioP1;P1;durP2;ratioP2;P2;SDS_P1;SDS_P2;PMS_P1;PMS_P2;Temp;Humidity;BMP_temperature;BMP_pressure;BME280_temperature;BME280_humidity;BME280_pressure;Samples;Min_cycle;Max_cycle;Signal;HPM_P1;HPM_P2
2021/04/16 00:00:30;;;;;;;1.60;0.82;;;1.50;99.90;;;;;;5035381;28;20625;-69
2021/04/16 00:02:56;;;;;;;1.30;0.60;;;1.50;99.90;;;;;;5053598;28;20177;-70
2021/04/16 00:05:22;;;;;;;1.90;1.20;;;1.50;99.90;;;;;;5052869;28;20189;-69
2021/04/16 00:07:48;;;;;;;1.10;0.40;;;1.40;99.90;;;;;;5052053;28;20178;-69
2021/04/16 00:10:19;;;;;;;1.30;0.90;;;1.30;99.90;;;;;;5053249;28;20406;-69
2021/04/16 00:12:45;;;;;;;1.88;1.10;;;1.30;99.90;;;;;;5052169;28;20169;-70
2021/04/16 00:15:14;;;;;;;0.97;0.70;;;1.20;99.90;;;;;;5050239;28;20178;-68
2021/04/16 00:17:40;;;;;;;2.60;0.75;;;1.20;99.90;;;;;;5033452;28;20176;-69
2021/04/16 00:20:07;;;;;;;2.40;1.67;;;1.20;99.90;;;;;;5033182;28;20178;-70
2021/04/16 00:22:34;;;;;;;0.80;0.73;;;1.20;99.90;;;;;;5052924;28;20184;-69
2021/04/16 00:25:00;;;;;;;0.75;0.63;;;1.10;99.90;;;;;;5052718;28;20175;-70
2021/04/16 00:27:26;;;;;;;1.35;0.80;;;1.10;99.90;;;;;;5052930;28;20196;-69
2021/04/16 00:29:52;;;;;;;0.97;0.97;;;1.10;99.90;;;;;;5053205;28;20162;-69
2021/04/16 00:32:18;;;;;;;1.97;1.87;;;1.00;99.90;;;;;;5033874;28;20201;-69
2021/04/16 00:34:43;;;;;;;2.03;1.83;;;1.00;99.90;;;;;;5032899;28;20167;-69
2021/04/16 00:37:09;;;;;;;1.03;0.80;;;0.90;99.90;;;;;;5033034;28;20244;-70
2021/04/16 00:39:35;;;;;;;2.63;2.40;;;1.00;99.90;;;;;;5033466;28;20170;-69
2021/04/16 00:42:00;;;;;;;0.70;0.70;;;0.90;99.90;;;;;;5033201;28;20205;-69
2021/04/16 00:44:26;;;;;;;1.00;1.00;;;0.90;99.90;;;;;;5032776;28;20174;-69
2021/04/16 00:46:58;;;;;;;2.07;1.70;;;0.80;99.90;;;;;;5032764;28;20206;-69
2021/04/16 00:49:32;;;;;;;2.75;1.60;;;0.80;99.90;;;;;;5033140;28;20162;-69
2021/04/16 00:52:01;;;;;;;0.77;0.77;;;0.80;99.90;;;;;;5033139;28;20236;-68
2021/04/16 00:54:33;;;;;;;1.98;1.90;;;0.70;99.90;;;;;;5032612;28;20459;-69
2021/04/16 00:57:00;;;;;;;1.88;1.48;;;0.70;99.90;;;;;;5034947;28;20202;-69
2021/04/16 00:59:28;;;;;;;0.70;0.70;;;0.70;99.90;;;;;;5037280;28;20174;-69
2021/04/16 01:01:56;;;;;;;1.00;1.00;;;0.70;99.90;;;;;;5055373;28;20256;-68
2021/04/16 01:04:22;;;;;;;0.90;0.90;;;0.80;99.90;;;;;;5056373;28;20266;-69
2021/04/16 01:06:48;;;;;;;0.50;0.50;;;0.80;99.90;;;;;;5056599;28;20227;-69
2021/04/16 01:09:14;;;;;;;2.20;2.00;;;0.70;99.90;;;;;;5056362;28;20216;-69
2021/04/16 01:11:40;;;;;;;1.48;1.48;;;0.70;99.90;;;;;;5055041;28;20412;-69
2021/04/16 01:14:06;;;;;;;0.53;0.53;;;0.70;99.90;;;;;;5056236;28;20655;-69
2021/04/16 01:16:33;;;;;;;2.45;2.25;;;0.70;99.90;;;;;;5056456;28;20439;-68
2021/04/16 01:19:07;;;;;;;1.08;1.00;;;0.60;99.90;;;;;;5056564;28;20258;-69
2021/04/16 01:21:43;;;;;;;1.70;1.55;;;0.60;99.90;;;;;;5038597;28;20206;-69
2021/04/16 01:24:20;;;;;;;0.98;0.98;;;0.60;99.90;;;;;;5036438;28;20595;-69
2021/04/16 01:26:46;;;;;;;2.05;0.98;;;0.60;99.90;;;;;;5036197;28;20229;-69
2021/04/16 01:29:12;;;;;;;3.17;2.97;;;0.60;99.90;;;;;;5036316;28;20200;-69
2021/04/16 01:31:47;;;;;;;2.20;1.40;;;0.60;99.90;;;;;;5035119;28;20607;-69
2021/04/16 01:34:22;;;;;;;2.20;2.00;;;0.50;99.90;;;;;;5036265;28;20548;-69
2021/04/16 01:36:51;;;;;;;2.15;0.93;;;0.50;99.90;;;;;;5056077;28;20272;-69
2021/04/16 01:39:18;;;;;;;0.95;0.95;;;0.50;99.90;;;;;;5054819;28;20166;-70
2021/04/16 01:41:44;;;;;;;1.95;0.77;;;0.40;99.90;;;;;;5056444;28;20165;-69
2021/04/16 01:44:13;;;;;;;1.23;1.23;;;0.40;99.90;;;;;;5042430;28;20198;-69
2021/04/16 01:46:58;;;;;;;1.00;1.00;;;0.30;99.90;;;;;;5035829;28;20572;-69
2021/04/16 01:49:27;;;;;;;0.98;0.98;;;0.30;99.90;;;;;;5036158;28;20190;-69
2021/04/16 01:51:53;;;;;;;0.60;0.60;;;0.30;99.90;;;;;;5036143;28;20257;-69
2021/04/16 01:54:32;;;;;;;4.65;1.55;;;0.30;99.90;;;;;;5038697;28;20227;-69
2021/04/16 01:57:08;;;;;;;0.57;0.57;;;0.20;99.90;;;;;;5055696;28;20193;-70
2021/04/16 01:59:36;;;;;;;0.77;0.77;;;0.20;99.90;;;;;;5055981;28;20173;-69
2021/04/16 02:02:05;;;;;;;1.02;1.02;;;0.20;99.90;;;;;;5055820;28;20212;-69
2021/04/16 02:04:31;;;;;;;0.50;0.50;;;0.20;99.90;;;;;;5037489;28;20240;-69
2021/04/16 02:06:58;;;;;;;1.05;1.05;;;0.10;99.90;;;;;;5035331;28;20260;-69
2021/04/16 02:09:27;;;;;;;0.70;0.70;;;0.10;99.90;;;;;;5034782;28;20212;-69
2021/04/16 02:11:53;;;;;;;0.70;0.70;;;0.10;99.90;;;;;;5035648;28;20166;-69
2021/04/16 02:14:22;;;;;;;1.37;1.37;;;0.00;99.90;;;;;;5035300;28;20173;-69
2021/04/16 02:16:50;;;;;;;0.50;0.50;;;0.00;99.90;;;;;;5035666;28;20808;-69
2021/04/16 02:19:16;;;;;;;1.38;1.38;;;0.00;99.90;;;;;;5052591;28;20185;-69
2021/04/16 02:21:42;;;;;;;0.80;0.80;;;0.10;99.90;;;;;;5055511;28;20230;-69
2021/04/16 02:24:09;;;;;;;0.52;0.52;;;0.10;99.90;;;;;;5055048;28;20485;-69
2021/04/16 02:26:36;;;;;;;0.50;0.50;;;0.10;99.90;;;;;;5046007;28;20225;-69
2021/04/16 02:29:04;;;;;;;1.20;1.20;;;0.10;99.90;;;;;;5035407;28;20249;-69
2021/04/16 02:31:31;;;;;;;0.50;0.50;;;0.10;99.90;;;;;;5035282;28;20224;-69
2021/04/16 02:33:56;;;;;;;2.47;2.30;;;0.10;99.90;;;;;;5035054;28;20631;-69
2021/04/16 02:36:24;;;;;;;0.80;0.80;;;0.10;99.90;;;;;;5045048;28;20224;-69
2021/04/16 02:38:51;;;;;;;0.82;0.82;;;0.10;99.90;;;;;;5055212;28;20181;-69
2021/04/16 02:41:17;;;;;;;0.68;0.68;;;0.10;99.90;;;;;;5055235;28;20165;-69
2021/04/16 02:43:43;;;;;;;0.73;0.73;;;0.10;99.90;;;;;;5054697;28;20649;-70
2021/04/16 02:46:08;;;;;;;0.80;0.70;;;0.10;99.90;;;;;;5054727;28;20509;-69
2021/04/16 02:48:34;;;;;;;1.23;1.13;;;0.00;99.90;;;;;;5054935;28;20244;-69
2021/04/16 02:50:59;;;;;;;0.80;0.80;;;0.00;99.90;;;;;;5045717;28;20170;-68
2021/04/16 02:53:25;;;;;;;4.37;2.30;;;0.00;99.90;;;;;;5034913;28;20167;-69
2021/04/16 02:55:51;;;;;;;1.33;1.27;;;0.00;99.90;;;;;;5034523;28;20250;-69
2021/04/16 02:58:16;;;;;;;2.00;1.73;;;0.00;99.90;;;;;;5034593;28;20193;-69
2021/04/16 03:00:42;;;;;;;1.47;1.23;;;-0.10;99.90;;;;;;5034733;28;20166;-69
2021/04/16 03:03:08;;;;;;;1.17;1.17;;;-0.10;99.90;;;;;;5035112;28;20253;-69
2021/04/16 03:05:33;;;;;;;0.70;0.70;;;-0.10;99.90;;;;;;5041354;28;20479;-69
2021/04/16 03:07:59;;;;;;;0.77;0.77;;;-0.10;99.90;;;;;;5054653;28;20616;-68
2021/04/16 03:10:31;;;;;;;0.40;0.40;;;-0.10;99.90;;;;;;5054705;28;20174;-69
2021/04/16 03:12:57;;;;;;;1.77;1.52;;;-0.10;99.90;;;;;;5054871;28;20196;-69
2021/04/16 03:15:23;;;;;;;0.30;0.30;;;-0.20;99.90;;;;;;5034315;28;20225;-69
2021/04/16 03:17:50;;;;;;;0.57;0.57;;;-0.30;99.90;;;;;;5034382;28;20671;-69
2021/04/16 03:20:17;;;;;;;1.00;1.00;;;-0.30;99.90;;;;;;5032885;28;20537;-68
2021/04/16 03:22:43;;;;;;;0.55;0.55;;;-0.20;99.90;;;;;;5034473;28;20182;-68
2021/04/16 03:25:10;;;;;;;1.37;1.37;;;-0.20;99.90;;;;;;5033880;28;20174;-69
2021/04/16 03:27:37;;;;;;;0.60;0.60;;;-0.20;99.90;;;;;;5034029;28;20660;-68
2021/04/16 03:30:05;;;;;;;0.95;0.95;;;-0.30;99.90;;;;;;5052712;28;20177;-68
2021/04/16 03:32:31;;;;;;;6.35;2.67;;;-0.40;99.90;;;;;;5053681;28;20208;-68
2021/04/16 03:34:56;;;;;;;0.60;0.60;;;-0.40;99.90;;;;;;5053816;28;20502;-69
2021/04/16 03:37:22;;;;;;;1.03;1.00;;;-0.40;99.90;;;;;;5054052;28;20217;-68
2021/04/16 03:39:48;;;;;;;0.75;0.75;;;-0.30;99.90;;;;;;5053778;28;20173;-69
2021/04/16 03:42:14;;;;;;;0.47;0.47;;;-0.40;99.90;;;;;;5053863;28;20636;-68
2021/04/16 03:44:39;;;;;;;0.60;0.60;;;-0.40;99.90;;;;;;5035542;28;20178;-68
2021/04/16 03:47:05;;;;;;;1.03;1.03;;;-0.40;99.90;;;;;;5033780;28;20711;-70
2021/04/16 03:49:31;;;;;;;1.17;1.10;;;-0.40;99.90;;;;;;5033951;28;20178;-69
2021/04/16 03:52:00;;;;;;;1.33;1.33;;;-0.30;99.90;;;;;;5040859;28;20252;-68
2021/04/16 03:54:27;;;;;;;1.58;1.27;;;-0.30;99.90;;;;;;5053351;28;20572;-69
2021/04/16 03:56:53;;;;;;;0.63;0.63;;;-0.40;99.90;;;;;;5053454;28;20221;-69
2021/04/16 03:59:20;;;;;;;0.97;0.97;;;-0.40;99.90;;;;;;5052397;28;20232;-69
2021/04/16 04:01:46;;;;;;;0.63;0.63;;;-0.40;99.90;;;;;;5039770;28;20428;-69
2021/04/16 04:04:12;;;;;;;1.33;1.33;;;-0.40;99.90;;;;;;5033310;28;20174;-69
2021/04/16 04:06:38;;;;;;;0.40;0.40;;;-0.40;99.90;;;;;;5032019;28;20213;-69
2021/04/16 04:09:05;;;;;;;1.23;0.93;;;-0.40;99.90;;;;;;5033562;28;20516;-69
2021/04/16 04:11:32;;;;;;;0.70;0.70;;;-0.50;99.90;;;;;;5033541;28;20404;-69
2021/04/16 04:13:58;;;;;;;2.38;1.75;;;-0.40;99.90;;;;;;5033142;28;20174;-69
2021/04/16 04:16:25;;;;;;;1.55;1.30;;;-0.40;99.90;;;;;;5033346;28;20182;-69
2021/04/16 04:18:51;;;;;;;1.60;1.27;;;-0.50;99.90;;;;;;5032169;28;20305;-69
2021/04/16 04:21:16;;;;;;;1.47;1.37;;;-0.60;99.90;;;;;;5042658;28;20659;-69
2021/04/16 04:23:42;;;;;;;1.03;1.03;;;-0.60;99.90;;;;;;5053118;28;20180;-70
2021/04/16 04:26:08;;;;;;;1.27;0.87;;;-0.60;99.90;;;;;;5052971;28;20538;-69
2021/04/16 04:28:34;;;;;;;1.23;1.10;;;-0.60;99.90;;;;;;5053184;28;20584;-70
2021/04/16 04:30:59;;;;;;;2.30;2.10;;;-0.70;99.90;;;;;;5052565;28;20244;-69
2021/04/16 04:33:25;;;;;;;1.33;1.33;;;-0.60;99.90;;;;;;5053285;28;20532;-69
2021/04/16 04:35:51;;;;;;;1.02;1.02;;;-0.70;99.90;;;;;;5050068;28;20197;-68
2021/04/16 04:38:17;;;;;;;0.53;0.53;;;-0.70;99.90;;;;;;5033400;28;20174;-68
2021/04/16 04:40:43;;;;;;;1.07;1.07;;;-0.60;99.90;;;;;;5033115;28;20409;-69
2021/04/16 04:43:09;;;;;;;2.60;1.90;;;-0.60;99.90;;;;;;5033413;28;20497;-68
2021/04/16 04:45:35;;;;;;;1.63;0.90;;;-0.60;99.90;;;;;;5032615;28;20502;-70
2021/04/16 04:48:01;;;;;;;0.70;0.70;;;-0.50;99.90;;;;;;5033241;28;20198;-68
2021/04/16 04:50:27;;;;;;;0.75;0.75;;;-0.50;99.90;;;;;;5033065;28;20520;-69
2021/04/16 04:52:54;;;;;;;1.83;1.70;;;-0.40;99.90;;;;;;5033160;28;20166;-68
2021/04/16 04:55:30;;;;;;;1.25;1.25;;;-0.40;99.90;;;;;;5032745;28;20215;-69
2021/04/16 04:57:58;;;;;;;2.85;2.65;;;-0.30;99.90;;;;;;5031720;28;20189;-69
2021/04/16 05:00:24;;;;;;;0.60;0.60;;;-0.20;99.90;;;;;;5033190;28;20173;-69
2021/04/16 05:02:49;;;;;;;1.55;1.50;;;-0.20;99.90;;;;;;5033178;28;20169;-70
2021/04/16 05:05:17;;;;;;;0.40;0.40;;;-0.10;99.90;;;;;;5039070;28;20670;-68
2021/04/16 05:07:42;;;;;;;0.93;0.93;;;0.00;99.90;;;;;;5052824;28;20497;-68
2021/04/16 05:10:09;;;;;;;2.30;1.17;;;0.20;99.90;;;;;;5051637;28;20177;-69
2021/04/16 05:12:35;;;;;;;0.77;0.77;;;0.30;99.90;;;;;;5052787;28;20165;-69
2021/04/16 05:15:01;;;;;;;0.88;0.82;;;0.50;99.90;;;;;;5052071;28;20696;-69
2021/04/16 05:17:27;;;;;;;1.73;1.63;;;0.70;99.90;;;;;;5052780;28;20193;-69
2021/04/16 05:19:52;;;;;;;1.23;1.15;;;0.90;99.90;;;;;;5052745;28;20952;-69
2021/04/16 05:22:18;;;;;;;1.53;1.37;;;1.20;99.90;;;;;;5052594;28;20256;-69
2021/04/16 05:24:44;;;;;;;1.03;1.03;;;1.30;99.90;;;;;;5052083;28;20183;-69
2021/04/16 05:27:11;;;;;;;1.10;1.10;;;1.40;99.90;;;;;;5052639;28;20193;-69
2021/04/16 05:29:37;;;;;;;1.95;1.23;;;1.50;99.90;;;;;;5035570;28;20181;-69
2021/04/16 05:32:04;;;;;;;1.47;1.47;;;1.50;99.90;;;;;;5032474;28;20637;-69
2021/04/16 05:34:30;;;;;;;0.90;0.90;;;1.50;99.90;;;;;;5030885;28;20178;-69
2021/04/16 05:36:56;;;;;;;1.20;1.20;;;1.60;99.90;;;;;;5032613;28;20195;-69
2021/04/16 05:39:22;;;;;;;1.40;1.37;;;1.70;99.90;;;;;;5031340;28;20189;-69
2021/04/16 05:41:48;;;;;;;1.17;1.17;;;1.90;99.90;;;;;;5032956;28;20423;-69
2021/04/16 05:44:14;;;;;;;2.83;2.08;;;2.20;99.90;;;;;;5050993;28;20255;-69
2021/04/16 05:46:40;;;;;;;1.30;1.20;;;2.40;99.90;;;;;;5055922;28;20706;-69
2021/04/16 05:49:06;;;;;;;1.35;1.25;;;2.50;99.90;;;;;;5056094;28;20439;-69
2021/04/16 05:51:32;;;;;;;0.73;0.73;;;2.70;99.90;;;;;;5055998;28;20169;-69
2021/04/16 05:53:58;;;;;;;0.73;0.73;;;2.70;99.90;;;;;;5055597;28;20173;-69
2021/04/16 05:56:24;;;;;;;0.60;0.60;;;3.00;99.90;;;;;;5055555;28;20272;-69
2021/04/16 05:58:50;;;;;;;1.53;1.43;;;3.30;99.90;;;;;;5041134;28;20428;-70
2021/04/16 06:01:16;;;;;;;1.80;1.07;;;3.60;99.90;;;;;;5035478;28;20253;-70
2021/04/16 06:03:45;;;;;;;1.52;0.90;;;4.00;99.90;;;;;;5035389;28;20405;-70
2021/04/16 06:06:10;;;;;;;1.30;1.08;;;4.40;99.90;;;;;;5039314;28;20592;-70
2021/04/16 06:08:36;;;;;;;0.90;0.90;;;4.70;99.90;;;;;;5055395;28;20172;-70
2021/04/16 06:11:03;;;;;;;2.13;1.53;;;4.70;99.90;;;;;;5055409;28;20252;-70
2021/04/16 06:13:29;;;;;;;0.70;0.70;;;4.50;99.90;;;;;;5055433;28;20256;-72
2021/04/16 06:15:55;;;;;;;1.85;1.75;;;4.60;99.90;;;;;;5051893;28;20251;-73
2021/04/16 06:18:22;;;;;;;0.90;0.80;;;4.80;99.90;;;;;;5052658;28;20174;-75
2021/04/16 06:20:48;;;;;;;1.33;1.23;;;5.10;99.90;;;;;;5056070;28;20556;-75
2021/04/16 06:23:14;;;;;;;1.13;1.03;;;5.10;99.90;;;;;;5055270;28;20228;-72
2021/04/16 06:25:39;;;;;;;0.98;0.98;;;5.20;99.90;;;;;;5046877;28;20850;-66
2021/04/16 06:28:06;;;;;;;1.90;1.80;;;5.60;99.90;;;;;;5048893;28;20177;-70
2021/04/16 06:30:32;;;;;;;1.30;1.20;;;6.00;99.90;;;;;;5055036;28;20497;-71
2021/04/16 06:33:06;;;;;;;1.30;1.20;;;6.50;99.90;;;;;;5054980;28;20173;-69
2021/04/16 06:35:34;;;;;;;2.40;1.90;;;7.30;98.60;;;;;;5054439;28;20177;-67
2021/04/16 06:38:00;;;;;;;2.00;1.80;;;7.60;97.30;;;;;;5055088;28;20169;-68
2021/04/16 06:40:29;;;;;;;3.53;2.05;;;7.80;96.00;;;;;;5046500;28;20209;-70
2021/04/16 06:42:55;;;;;;;2.70;1.60;;;8.00;95.60;;;;;;5034985;28;20241;-72
2021/04/16 06:45:27;;;;;;;5.05;2.03;;;7.90;95.30;;;;;;5034190;28;20540;-71
2021/04/16 06:47:55;;;;;;;4.60;2.83;;;8.10;95.10;;;;;;5036011;28;20185;-73
2021/04/16 06:50:23;;;;;;;3.72;1.83;;;8.20;94.60;;;;;;5053598;28;20256;-70
2021/04/16 06:53:10;;;;;;;4.43;2.80;;;8.30;94.40;;;;;;5054766;28;20176;-70
2021/04/16 06:55:43;;;;;;;4.47;1.88;;;8.40;94.20;;;;;;5052307;28;20246;-71
2021/04/16 06:58:15;;;;;;;4.10;2.47;;;8.40;94.30;;;;;;5041691;28;20544;-73
2021/04/16 07:00:46;;;;;;;5.28;2.45;;;8.60;94.00;;;;;;5034847;28;20393;-71
2021/04/16 07:03:24;;;;;;;4.15;2.20;;;8.70;93.20;;;;;;5035650;28;20528;-71
2021/04/16 07:05:52;;;;;;;4.25;1.60;;;8.80;92.90;;;;;;5040394;28;20205;-72
2021/04/16 07:08:39;;;;;;;4.07;1.83;;;8.70;92.50;;;;;;5052117;28;20168;-72
2021/04/16 07:11:41;;;;;;;4.72;2.08;;;8.40;92.70;;;;;;5034360;28;20198;-73
2021/04/16 07:14:15;;;;;;;4.20;1.95;;;7.70;93.60;;;;;;5034146;28;20169;-71
2021/04/16 07:16:42;;;;;;;6.10;2.05;;;7.20;94.50;;;;;;5036386;28;20193;-69
2021/04/16 07:19:15;;;;;;;4.47;1.40;;;7.10;95.10;;;;;;5033120;28;20640;-68
2021/04/16 07:21:41;;;;;;;3.85;1.60;;;7.20;95.30;;;;;;5047479;28;20188;-72
2021/04/16 07:24:08;;;;;;;3.33;1.97;;;7.20;95.50;;;;;;5053643;28;20173;-71
2021/04/16 07:26:49;;;;;;;4.97;1.98;;;7.30;95.80;;;;;;5052178;28;20201;-72
2021/04/16 07:29:41;;;;;;;3.50;1.60;;;7.40;95.60;;;;;;5051781;28;20170;-70
2021/04/16 07:32:26;;;;;;;5.15;2.35;;;7.60;95.00;;;;;;5053875;28;20161;-73
2021/04/16 07:34:54;;;;;;;4.93;2.20;;;7.70;94.80;;;;;;5053381;28;20170;-75
2021/04/16 07:37:41;;;;;;;5.18;2.47;;;7.60;94.50;;;;;;5051832;28;20193;-76
2021/04/16 07:40:21;;;;;;;3.65;1.85;;;7.50;94.70;;;;;;5053830;28;20176;-74
2021/04/16 07:42:49;;;;;;;3.88;1.70;;;7.30;95.10;;;;;;5053746;28;20170;-75
2021/04/16 07:45:32;;;;;;;4.00;1.55;;;7.30;95.50;;;;;;5035009;28;20176;-76
2021/04/16 07:48:18;;;;;;;3.80;1.92;;;7.40;95.40;;;;;;5033483;28;20181;-75
2021/04/16 07:50:51;;;;;;;3.60;1.83;;;7.40;95.40;;;;;;5033700;28;20648;-71
2021/04/16 07:53:27;;;;;;;3.88;1.55;;;7.30;95.60;;;;;;5033501;28;20262;-70
2021/04/16 07:56:21;;;;;;;4.43;1.70;;;7.20;96.30;;;;;;5033108;28;20190;-70
2021/04/16 07:59:00;;;;;;;3.67;2.08;;;7.20;96.10;;;;;;5033092;28;20194;-73
2021/04/16 08:01:25;;;;;;;3.45;1.33;;;7.50;95.90;;;;;;5043981;28;20177;-72
2021/04/16 08:04:01;;;;;;;3.93;1.27;;;7.70;95.30;;;;;;5053300;28;20324;-71
2021/04/16 08:06:43;;;;;;;3.88;1.70;;;7.70;95.20;;;;;;5052293;28;20204;-70
2021/04/16 08:09:14;;;;;;;3.92;1.70;;;7.40;95.30;;;;;;5047934;28;20184;-69
2021/04/16 08:11:40;;;;;;;4.00;1.67;;;7.30;95.60;;;;;;5042375;28;20256;-69
2021/04/16 08:14:20;;;;;;;3.10;1.48;;;7.10;96.60;;;;;;5032926;28;20166;-70
2021/04/16 08:16:58;;;;;;;2.75;0.90;;;6.80;96.80;;;;;;5033297;28;20255;-71
2021/04/16 08:19:28;;;;;;;5.53;1.92;;;6.60;97.30;;;;;;5033180;28;20229;-71
2021/04/16 08:22:01;;;;;;;4.30;1.63;;;6.60;97.50;;;;;;5034113;28;20560;-72
2021/04/16 08:24:57;;;;;;;4.10;1.85;;;6.70;97.40;;;;;;5033069;28;20264;-75
2021/04/16 08:27:52;;;;;;;3.70;1.33;;;6.60;97.50;;;;;;5031871;28;20614;-73
2021/04/16 08:30:39;;;;;;;3.70;1.00;;;6.40;97.60;;;;;;5032940;28;20264;-74
2021/04/16 08:33:30;;;;;;;2.50;1.00;;;6.30;98.10;;;;;;5031995;28;20533;-74
2021/04/16 08:36:14;;;;;;;4.15;1.20;;;6.30;98.50;;;;;;5040926;28;20205;-72
2021/04/16 08:38:59;;;;;;;3.05;1.35;;;6.40;98.40;;;;;;5053046;28;20350;-72
2021/04/16 08:41:28;;;;;;;5.28;1.52;;;6.50;98.40;;;;;;5044981;28;20223;-70
2021/04/16 08:43:58;;;;;;;3.22;1.38;;;6.70;98.30;;;;;;5040033;28;20220;-72
2021/04/16 08:46:36;;;;;;;3.05;1.13;;;6.80;98.00;;;;;;5059714;28;20204;-73
2021/04/16 08:49:11;;;;;;;3.65;2.15;;;6.80;97.80;;;;;;5053419;28;20164;-75
2021/04/16 08:51:41;;;;;;;5.05;2.65;;;6.80;97.90;;;;;;5033022;28;20207;-75
2021/04/16 08:54:15;;;;;;;2.95;1.15;;;6.60;98.10;;;;;;5032592;28;20203;-70
2021/04/16 08:57:07;;;;;;;3.08;1.17;;;6.50;98.60;;;;;;5044465;28;20284;-70
2021/04/16 09:00:01;;;;;;;3.00;1.42;;;6.50;99.00;;;;;;5045891;28;20675;-68
2021/04/16 09:02:32;;;;;;;4.32;1.80;;;6.60;99.50;;;;;;5044135;28;20182;-70
2021/04/16 09:05:15;;;;;;;2.58;1.38;;;6.60;99.00;;;;;;5031511;28;20190;-71
2021/04/16 09:07:44;;;;;;;3.45;2.08;;;6.60;98.30;;;;;;5032808;28;20204;-72
2021/04/16 09:10:16;;;;;;;3.10;1.55;;;6.60;98.40;;;;;;5032726;28;20179;-71
2021/04/16 09:12:46;;;;;;;2.70;1.48;;;6.70;98.60;;;;;;5033565;28;20175;-71
2021/04/16 09:15:21;;;;;;;2.67;1.40;;;7.00;98.10;;;;;;5034554;28;20201;-70
2021/04/16 09:17:53;;;;;;;4.70;2.10;;;7.30;97.70;;;;;;5036250;28;20190;-72
2021/04/16 09:20:24;;;;;;;3.40;1.40;;;7.70;98.00;;;;;;5049175;28;20517;-70
2021/04/16 09:22:54;;;;;;;3.28;2.15;;;8.20;96.20;;;;;;5076476;28;20169;-71
2021/04/16 09:25:45;;;;;;;3.90;1.65;;;8.80;95.30;;;;;;5072048;28;20183;-71
2021/04/16 09:28:23;;;;;;;3.75;2.10;;;9.40;93.90;;;;;;5076496;28;20238;-70
2021/04/16 09:30:50;;;;;;;5.60;2.57;;;10.50;93.20;;;;;;5047105;28;20253;-69
2021/04/16 09:33:41;;;;;;;4.93;2.40;;;11.90;91.10;;;;;;5045535;28;20419;-73
2021/04/16 09:36:32;;;;;;;6.13;2.50;;;13.30;87.30;;;;;;5041691;28;20532;-70
2021/04/16 09:39:14;;;;;;;7.13;2.70;;;14.70;80.60;;;;;;5075258;28;20843;-71
2021/04/16 09:41:45;;;;;;;9.63;4.23;;;16.20;75.50;;;;;;5076308;28;20785;-71
2021/04/16 09:44:29;;;;;;;5.23;2.60;;;17.50;69.00;;;;;;5074601;28;20467;-71
2021/04/16 09:46:59;;;;;;;4.60;1.93;;;18.20;65.40;;;;;;5075810;28;20456;-70
2021/04/16 09:49:24;;;;;;;4.97;2.30;;;18.60;61.10;;;;;;5075930;28;20385;-70
2021/04/16 09:51:53;;;;;;;5.47;2.50;;;18.80;59.10;;;;;;5075924;28;20384;-70
2021/04/16 09:54:21;;;;;;;4.67;2.30;;;18.40;58.60;;;;;;5075629;28;20165;-67
2021/04/16 09:57:03;;;;;;;5.37;2.60;;;18.30;57.40;;;;;;5075230;28;20517;-70
2021/04/16 09:59:34;;;;;;;4.30;1.80;;;17.90;57.00;;;;;;5075850;28;20382;-69
2021/04/16 10:04:52;;;;;;;3.97;1.53;;;15.70;58.60;;;;;;5075309;28;20374;-70
2021/04/16 10:07:51;;;;;;;5.10;2.27;;;15.10;59.80;;;;;;5075288;28;20455;-71
2021/04/16 10:10:22;;;;;;;7.73;3.10;;;14.80;60.00;;;;;;5075835;28;20403;-69
2021/04/16 10:12:47;;;;;;;5.47;2.77;;;14.50;60.60;;;;;;5071613;28;20411;-69
2021/04/16 10:15:25;;;;;;;5.10;2.57;;;14.00;61.40;;;;;;5055111;28;20533;-69
2021/04/16 10:18:04;;;;;;;4.93;2.10;;;13.40;62.20;;;;;;5055441;28;20173;-70
2021/04/16 10:20:31;;;;;;;7.50;3.30;;;12.70;64.40;;;;;;5055392;28;20442;-71
2021/04/16 10:23:33;;;;;;;6.77;2.70;;;12.20;66.20;;;;;;5055259;28;20401;-71
2021/04/16 11:12:31;;;;;;;3.53;1.10;;;6.90;93.30;;;;;;5052017;28;20217;-72
2021/04/16 12:41:01;;;;;;;4.13;1.50;;;8.10;90.30;;;;;;5033115;28;20534;-71
2021/04/16 12:43:28;;;;;;;5.43;1.85;;;8.10;90.40;;;;;;5033039;28;20176;-71
2021/04/16 12:45:55;;;;;;;6.55;1.48;;;8.20;89.90;;;;;;5032299;28;20201;-70
2021/04/16 12:48:22;;;;;;;4.88;1.35;;;8.20;89.80;;;;;;5037787;28;20252;-70
2021/04/16 12:50:48;;;;;;;5.05;2.38;;;8.20;90.10;;;;;;5032753;28;20176;-71
2021/04/16 12:53:14;;;;;;;4.53;1.57;;;8.20;89.30;;;;;;5035555;28;20165;-68
2021/04/16 12:55:40;;;;;;;5.00;1.40;;;8.30;88.90;;;;;;5039963;28;20197;-71
2021/04/16 12:58:08;;;;;;;4.30;1.27;;;8.30;88.50;;;;;;5056647;28;20192;-71
2021/04/16 13:00:40;;;;;;;4.10;1.73;;;8.40;88.50;;;;;;5044855;28;20177;-69
2021/04/16 13:03:14;;;;;;;5.32;1.40;;;8.50;88.60;;;;;;5036712;28;20174;-71
2021/04/16 13:05:42;;;;;;;3.60;1.33;;;8.60;87.00;;;;;;5036206;28;20209;-70
2021/04/16 13:08:08;;;;;;;3.65;1.45;;;8.80;87.30;;;;;;5041368;28;20208;-71
2021/04/16 13:10:35;;;;;;;4.38;1.70;;;9.00;86.00;;;;;;5043391;28;20740;-71
2021/04/16 13:13:01;;;;;;;4.43;1.20;;;9.20;85.30;;;;;;5044895;28;20181;-71
2021/04/16 13:15:27;;;;;;;3.92;1.60;;;9.40;84.90;;;;;;5045673;28;20173;-69
2021/04/16 13:17:57;;;;;;;4.57;1.27;;;9.60;83.30;;;;;;5044572;28;20579;-70
2021/04/16 13:20:24;;;;;;;3.40;1.08;;;9.60;82.40;;;;;;5051358;28;20528;-72
2021/04/16 13:22:50;;;;;;;5.47;1.67;;;9.70;80.00;;;;;;5054430;28;20173;-72
2021/04/16 13:25:20;;;;;;;3.40;1.10;;;9.70;78.70;;;;;;5046319;28;20256;-72
2021/04/16 13:27:46;;;;;;;3.80;1.10;;;9.60;78.60;;;;;;5036273;28;20178;-71
2021/04/16 13:30:14;;;;;;;4.87;1.60;;;9.60;78.90;;;;;;5035092;28;20177;-71
2021/04/16 13:32:45;;;;;;;4.38;1.65;;;9.50;79.10;;;;;;5036245;28;20532;-72
2021/04/16 13:35:15;;;;;;;4.05;1.13;;;9.50;78.70;;;;;;5045047;28;20227;-72
2021/04/16 13:37:42;;;;;;;3.50;1.00;;;9.50;78.70;;;;;;5043762;28;20571;-70
2021/04/16 13:40:09;;;;;;;4.32;1.60;;;9.60;78.40;;;;;;5044937;28;20231;-70
2021/04/16 13:42:36;;;;;;;4.00;1.38;;;9.40;78.80;;;;;;5045528;28;20178;-72
2021/04/16 13:45:02;;;;;;;4.68;1.27;;;9.40;79.10;;;;;;5051869;28;20184;-72
2021/04/16 13:47:32;;;;;;;3.63;1.13;;;9.40;78.40;;;;;;5055800;28;20240;-71
2021/04/16 13:49:58;;;;;;;4.10;1.30;;;9.30;77.60;;;;;;5056041;28;20625;-70
2021/04/16 13:52:25;;;;;;;4.18;1.15;;;9.20;78.60;;;;;;5055918;28;20192;-72
2021/04/16 13:54:51;;;;;;;3.35;1.20;;;9.30;79.20;;;;;;5055430;28;20177;-71
2021/04/16 13:57:18;;;;;;;3.67;1.20;;;9.20;78.40;;;;;;5055377;28;20213;-71
2021/04/16 13:59:45;;;;;;;4.90;1.80;;;9.30;77.30;;;;;;5055834;28;20245;-70
2021/04/16 14:02:33;;;;;;;3.90;1.15;;;9.30;76.40;;;;;;5055683;28;20242;-70
2021/04/16 14:05:05;;;;;;;4.82;1.55;;;9.30;77.00;;;;;;5055202;28;20177;-70
2021/04/16 14:07:31;;;;;;;8.13;1.42;;;9.30;76.80;;;;;;5055410;28;20671;-71
2021/04/16 14:09:56;;;;;;;3.57;0.93;;;9.30;77.10;;;;;;5054522;28;20185;-72
2021/04/16 14:12:22;;;;;;;4.13;1.13;;;9.30;77.20;;;;;;5054483;28;20232;-72
2021/04/16 14:14:49;;;;;;;3.80;1.00;;;9.40;76.90;;;;;;5073698;28;20176;-72
2021/04/16 14:17:20;;;;;;;4.45;2.00;;;9.40;75.90;;;;;;5074975;28;20218;-69
2021/04/16 14:19:52;;;;;;;4.13;1.50;;;9.40;76.20;;;;;;5074920;28;20260;-71
2021/04/16 14:22:44;;;;;;;5.38;1.23;;;9.40;76.00;;;;;;5075305;28;20185;-71
2021/04/16 14:25:32;;;;;;;4.45;1.10;;;9.30;76.10;;;;;;5074711;28;20172;-72
2021/04/16 14:27:58;;;;;;;3.10;0.80;;;9.20;76.70;;;;;;5075412;28;20180;-71
2021/04/16 14:30:33;;;;;;;3.88;1.20;;;9.10;76.50;;;;;;5075260;28;20165;-73
2021/04/16 14:33:01;;;;;;;3.50;1.30;;;9.10;77.20;;;;;;5074947;28;20234;-71
2021/04/16 14:35:29;;;;;;;4.38;1.30;;;9.20;76.10;;;;;;5074530;28;20184;-68
2021/04/16 14:37:55;;;;;;;3.90;1.23;;;9.10;75.40;;;;;;5074694;28;20160;-68
2021/04/16 14:40:22;;;;;;;5.53;1.77;;;8.90;77.00;;;;;;5074866;28;20169;-69
2021/04/16 14:42:49;;;;;;;3.47;0.90;;;8.90;77.40;;;;;;5074855;28;20520;-72
2021/04/16 14:45:21;;;;;;;4.45;1.85;;;8.90;77.70;;;;;;5073121;28;20180;-69
2021/04/16 14:47:46;;;;;;;4.13;1.05;;;8.90;78.10;;;;;;5074678;28;20252;-70
2021/04/16 14:50:14;;;;;;;3.60;1.23;;;8.80;77.90;;;;;;5075301;28;20590;-69
2021/04/16 14:52:40;;;;;;;3.75;1.48;;;8.80;77.70;;;;;;5073277;28;20184;-69
2021/04/16 14:55:09;;;;;;;5.25;1.40;;;8.70;78.60;;;;;;5074246;28;20168;-68
2021/04/16 14:57:39;;;;;;;4.70;1.70;;;8.60;78.90;;;;;;5074029;28;20212;-67
2021/04/16 15:00:12;;;;;;;3.58;1.23;;;8.60;79.70;;;;;;5074712;28;20199;-69
2021/04/16 15:02:38;;;;;;;5.25;1.13;;;8.60;80.80;;;;;;5074520;28;20170;-69
2021/04/16 15:05:05;;;;;;;7.23;2.27;;;8.50;82.00;;;;;;5074166;28;20191;-67
2021/04/16 15:07:34;;;;;;;3.38;0.80;;;8.40;82.30;;;;;;5074256;28;20454;-65
2021/04/16 15:10:09;;;;;;;4.10;1.90;;;8.40;81.40;;;;;;5074343;28;20180;-66
2021/04/16 15:12:40;;;;;;;4.22;1.52;;;8.40;81.40;;;;;;5072215;28;20157;-68
2021/04/16 15:15:09;;;;;;;3.63;0.95;;;8.30;81.90;;;;;;5053642;28;20163;-72
2021/04/16 15:17:34;;;;;;;4.13;1.45;;;8.20;82.60;;;;;;5054002;28;20724;-69
2021/04/16 15:20:00;;;;;;;3.70;1.07;;;8.10;82.90;;;;;;5054123;28;20219;-67
2021/04/16 15:22:30;;;;;;;5.27;2.10;;;8.00;84.00;;;;;;5054149;28;20180;-68
2021/04/16 15:24:59;;;;;;;3.30;0.70;;;8.00;83.80;;;;;;5053762;28;20178;-69